Historyczne dane pomiarowe

Dodano dane terminowe – wersja testowa.

Dane z okresu 1951-2019

Wersja bazy: 1.34 [2019-03-16, lista zmian], aktualizacja planowana na 2019-04-15

Dane meteo z obszaru Polski uzyskane na podstawie danych udostępnionych przez Instytut Meteorologii i Gospodarki Wodnej – Państwowy Instytut Badawczy.

 

Wybierz Datę:    

       

TemperaturaWilgotnośćWiatrCiśnienieOpadyŚniegCzas trwania zjawisk
 Stacja t tx tn tng RH VA  wxwx mslp ppp RRR   cm mm wxwxwxwxwxwxwx
2019-01-31 -0.1 0.9 -0.4 -0.5 99.4 6.0- 2.1--1005.1 977.5 2.2 2.2 0.0 4 0.0--------
2019-01-30 -1.3 0.6 -4.8 -8.8 98.4 5.5- 2.1--1006.3 978.6 2.0 2.0 0.0 3 0.0--------
2019-01-29 0.5 3.1 -1.9 -2.1 89.4 5.6- 2.9--1004.5 977.0 0.0 0.0 0.0 4 0.0--------
2019-01-28 -2.1 1.0 -5.7 -7.0 83.5 4.4- 3.3-- 999.2 971.6 0.8 0.0 0.8 4 0.0--------
2019-01-27 -4.1 0.1-13.4-17.3 85.8 3.9- 2.9--1004.1 976.1 0.0 0.0 0.0 4 0.0--------
2019-01-26 -6.5 -4.8 -6.9 -7.8 85.5 3.2- 2.4--1009.1 980.8 0.1 0.1 0.0 4 0.0--------
2019-01-25 -6.9 -6.1 -8.0 -7.7 87.8 3.2- 4.6--1013.9 985.4 0.9 0.9 0.0 4 0.0--------
2019-01-24 -7.0 -5.9 -7.9 -7.3 82.4 3.0- 5.6--1014.1 985.5 0.4 0.0 0.4 3 0.0--------
2019-01-23 -6.1 -4.1 -6.9 -6.1 85.0 3.3- 4.6--1010.2 981.9 0.0 0.0 0.0 3 0.0--------
2019-01-22 -6.9 -3.4-12.8-14.9 85.5 3.2- 2.5--1018.6 989.9 0.0 0.0 0.0 3 0.0--------
2019-01-21 -5.1 -3.6-10.4-12.6 92.8 3.9- 2.3--1023.2 994.6 0.0 0.0 0.0 3 0.0--------
2019-01-20 -8.2 -3.7-12.1-14.0 92.3 3.1- 1.1--1020.5 991.6 0.0 0.0 0.0 3 0.0--------
2019-01-19 -4.2 -0.2 -6.9-10.8 85.0 3.8- 2.9--1022.9 994.4 0.0 0.0 0.0 3 0.0--------
2019-01-18 0.8 3.9 -4.1 -6.4 81.1 5.3- 6.0--1011.0 983.3 0.6 0.6 0.0 3 0.0--------
2019-01-17 2.8 4.9 1.4 0.5 80.3 6.0- 6.9--1005.7 978.4 0.0 0.0 0.0 4 0.0--------
2019-01-16 1.6 2.6 -1.8 -2.5 90.5 6.2- 6.8--1005.4 977.9 0.3 0.3 0.0 5 2.4--------
2019-01-15 -1.9 -0.5 -4.0 -4.9 83.6 4.5- 8.5--1002.7 975.0 1.8 0.0 1.8 5 2.2--------
2019-01-14 -0.1 2.0 -2.0 -2.7 90.6 5.6- 8.1-- 989.5 962.3 2.1 2.1 0.0 8 2.3--------
2019-01-13 -0.3 1.0 -1.6 -1.7 91.6 5.5- 7.5-- 999.2 971.7 1.4 0.1 1.3 9 2.1--------
2019-01-12 -1.2 0.3 -9.6-10.3 87.0 4.9- 6.6--1008.3 980.5 0.1 0.0 0.1 10 2.0--------
2019-01-11 -9.0 -8.3-10.4-12.0 87.6 2.7- 3.9--1018.8 989.9 0.2 0.0 0.2 10 1.6--------
2019-01-10 -8.3 -7.4 -8.8 -8.7 86.9 2.9- 2.6--1016.9 988.2 0.0 0.0 0.0 11 1.7--------
2019-01-09 -6.1 -4.5 -7.7 -7.6 88.0 3.4- 3.6--1006.2 978.0 0.6 0.3 0.3 10 1.7--------
2019-01-08 -6.9 -4.2-15.2-20.8 85.4 3.2- 5.1--1012.3 983.9 2.5 0.0 2.5 7 2.0--------
2019-01-07 -8.0 -5.3-11.9-16.4 92.0 3.2- 2.6--1029.11000.1 0.1 0.1 0.0 7 1.9--------
2019-01-06 -5.4 -0.8 -6.4 -6.5 88.4 3.7- 6.6--1019.7 991.2 0.2 0.1 0.1 6 1.8--------
2019-01-05 -2.5 -0.1 -4.3 -4.4 90.8 4.6- 7.3--1011.3 983.4 0.6 0.6 0.0 5 1.4--------
2019-01-04 -4.5 -4.2 -6.9 -8.6 85.5 3.8- 5.1--1023.9 995.3 0.1 0.0 0.1 5 1.2--------
2019-01-03 -4.1 0.1 -5.2 -5.5 87.6 4.0- 6.1--1018.1 989.8 0.7 0.5 0.2 3 0.0--------
2019-01-02 0.7 3.1 0.0 -0.2 91.1 5.9- 7.4--1006.9 979.3 2.2 1.1 1.1- 0.0--------
2019-01-01 0.9 1.8 -0.7 -1.3 93.1 6.1- 6.8--1017.0 989.2 3.1 1.7 1.4- 0.0--------
2018-12-31 1.5 3.3 0.2 0.0 96.5 6.6- 5.4--1023.0 995.0 2.2 2.2 0.0- 0.0--------
2018-12-30 3.0 4.0 1.6 1.4 97.0 7.4- 3.9--1019.5 991.8 0.9 0.2 0.7- 0.0--------
2018-12-29 2.6 3.7 1.6 1.0 93.1 6.9- 4.0--1023.3 995.5 0.4 0.0 0.4- 0.0--------
2018-12-28 4.4 5.3 3.5 3.0 93.8 7.9- 7.0--1017.2 989.8 4.2 4.0 0.2- 0.0--------
2018-12-27 3.4 5.2 2.0 1.7 92.6 7.3- 6.0--1019.9 992.3 5.3 3.9 1.4- 0.0--------
2018-12-26 2.3 3.4 -0.2 -0.4 92.9 6.7- 7.9--1019.1 991.4 0.5 0.5 0.0- 0.0--------
2018-12-25 -1.1 -0.2 -2.4 -2.4 88.8 5.0- 6.1--1021.4 993.2 0.0 0.0 0.0 1 0.0--------
2018-12-24 0.7 3.7 -1.9 -2.4 91.3 6.0- 6.8--1012.1 984.4 0.4 0.2 0.2- 0.0--------
2018-12-23 1.9 4.9 0.6 -0.1 82.9 5.8- 7.0--1014.4 986.8 2.9 0.0 2.9- 0.0--------
2018-12-22 3.5 5.3 0.9 0.0 89.0 7.0- 8.6--1005.2 977.9 1.4 1.1 0.3 4 0.0--------
2018-12-21 0.9 2.0 -5.4 -5.4 83.9 5.5- 6.1--1018.3 990.4 3.8 0.0 3.8 8 1.9--------
2018-12-20 -5.2 -4.0 -6.6 -6.3 90.3 3.8- 4.3--1024.1 995.5 0.6 0.4 0.2 8 2.0--------
2018-12-19 -4.0 -3.0 -4.4 -4.3 85.3 3.9- 3.9--1030.61001.9 0.0 0.0 0.0 10 2.2--------
2018-12-18 -4.6 -2.6 -9.3-12.7 94.1 4.1- 1.0--1030.81002.1 0.0 0.0 0.0 10 2.1--------
2018-12-17 -2.5 -0.4 -6.9-10.0 95.5 4.9- 1.6--1023.7 995.3 0.0 0.0 0.0 11 1.8--------
2018-12-16 -2.1 -1.4 -3.0 -2.9 91.4 4.8- 5.3--1022.1 993.8 3.4 0.3 3.1 4 0.0--------
2018-12-15 -2.6 -0.6 -4.4 -6.0 93.4 4.7- 5.1--1028.1 999.6 0.4 0.0 0.4 1 0.0--------
2018-12-14 -1.1 -0.4 -2.4 -3.0 94.0 5.3- 2.3--1025.4 997.2 0.1 0.1 0.0 2 0.0--------
2018-12-13 -0.5 0.3 -0.9 -1.0 92.4 5.4- 4.6--1021.4 993.4 0.5 0.3 0.2 1 0.0--------
2018-12-12 -1.3 1.1 -5.0 -7.2 97.4 5.5- 2.3--1019.2 991.1 0.2 0.0 0.2- 0.0--------
2018-12-11 1.0 3.2 0.4 -0.2 91.6 6.0- 2.6--1012.2 984.5 0.0 0.0 0.0- 0.0--------
2018-12-10 3.0 4.3 1.2 0.5 92.8 7.1- 6.5--1003.9 976.7 1.9 1.9 0.0- 0.0--------
2018-12-09 2.7 4.8 0.7 -0.1 87.3 6.5- 5.5--1001.1 973.8 0.3 0.0 0.3- 0.0--------
2018-12-08 2.8 4.8 1.2 0.8 93.8 7.0- 6.1--1006.3 979.0 1.4 1.4 0.0- 0.0--------
2018-12-07 0.6 1.5 -1.9 -2.0 89.3 5.7- 6.1--1014.5 986.7 6.3 3.1 3.2- 0.0--------
2018-12-06 -1.2 0.0 -2.3 -2.7 89.5 5.0- 2.0--1027.0 998.7 0.0 0.0 0.0- 0.0--------
2018-12-05 0.6 6.3 -1.7 -2.6 90.0 5.8- 5.0--1025.4 997.3 0.0 0.0 0.0- 0.0--------
2018-12-04 5.7 7.4 4.6 3.6 89.1 8.2- 5.8--1010.7 983.5 2.2 1.6 0.6- 0.0--------
2018-12-03 4.0 6.1 -1.9 -4.2 84.8 6.9- 6.5--1008.8 981.5 0.7 0.7 0.0- 0.0--------
342.8 ms

 

Źródłem pochodzenia danych jest Instytut Meteorologii i Gospodarki Wodnej – Państwowy Instytut Badawczy. Dane Instytutu Meteorologii i Gospodarki Wodnej – Państwowego Instytutu Badawczego zostały przetworzone.

Dane źródłowe można odnaleźć na stronie https://dane.imgw.pl